createdAt,value
2023-04-11T00:02:13.937Z,0.73
2023-04-11T00:05:01.538Z,0.84
2023-04-11T00:07:48.588Z,0.85
2023-04-11T00:10:35.730Z,0.94
2023-04-11T00:13:24.139Z,0.95
2023-04-11T00:16:11.700Z,0.85
2023-04-11T00:18:58.808Z,0.79
2023-04-11T00:21:46.522Z,0.68
2023-04-11T00:24:33.639Z,0.60
2023-04-11T00:27:21.884Z,0.64
2023-04-11T00:30:09.547Z,0.58
2023-04-11T00:32:56.636Z,0.48
2023-04-11T00:35:44.485Z,0.48
2023-04-11T00:38:32.693Z,0.49
2023-04-11T00:41:19.814Z,0.41
2023-04-11T00:44:07.297Z,0.60
2023-04-11T00:46:54.413Z,0.60
2023-04-11T00:49:41.877Z,0.55
2023-04-11T00:52:29.182Z,0.42
2023-04-11T00:55:16.885Z,0.40
2023-04-11T00:58:04.260Z,0.35
2023-04-11T01:00:51.750Z,0.35
2023-04-11T01:03:39.687Z,0.42
2023-04-11T01:06:27.710Z,0.42
2023-04-11T01:09:14.754Z,0.44
2023-04-11T01:12:03.302Z,0.33
2023-04-11T01:14:50.525Z,0.30
2023-04-11T01:17:37.808Z,0.31
2023-04-11T01:20:26.527Z,0.39
2023-04-11T01:23:14.872Z,0.33
2023-04-11T01:26:01.959Z,0.24
2023-04-11T01:28:49.073Z,0.26
2023-04-11T01:31:36.435Z,0.42
2023-04-11T01:34:28.469Z,0.57
2023-04-11T01:37:16.245Z,0.48
2023-04-11T01:40:03.728Z,0.31
2023-04-11T01:42:52.189Z,0.38
2023-04-11T01:45:40.155Z,0.39
2023-04-11T01:48:28.268Z,0.37
2023-04-11T01:51:15.575Z,0.30
2023-04-11T01:54:02.630Z,0.29
2023-04-11T01:56:50.037Z,0.45
2023-04-11T01:59:37.074Z,0.37
2023-04-11T02:02:26.164Z,0.40
2023-04-11T02:05:13.421Z,0.33
2023-04-11T02:08:00.651Z,0.20
2023-04-11T02:10:47.718Z,0.30
2023-04-11T02:13:35.500Z,0.31
2023-04-11T02:16:25.979Z,0.26
2023-04-11T02:19:13.127Z,0.22
2023-04-11T02:22:00.281Z,0.21
2023-04-11T02:24:47.691Z,0.41
2023-04-11T02:27:34.914Z,0.49
2023-04-11T02:30:22.051Z,0.32
2023-04-11T02:33:09.117Z,0.29
2023-04-11T02:36:01.164Z,0.00
2023-04-11T02:38:48.242Z,0.62
2023-04-11T02:41:38.993Z,0.54
2023-04-11T02:44:26.491Z,0.39
2023-04-11T02:47:13.593Z,0.35
2023-04-11T02:50:00.692Z,0.31
2023-04-11T02:52:49.479Z,0.39
2023-04-11T02:55:36.844Z,0.34
2023-04-11T02:58:26.172Z,0.37
2023-04-11T03:01:21.742Z,0.41
2023-04-11T03:04:08.966Z,0.41
2023-04-11T03:06:56.754Z,0.47
2023-04-11T03:09:43.837Z,0.45
2023-04-11T03:12:30.872Z,0.39
2023-04-11T03:15:17.985Z,0.50
2023-04-11T03:18:05.126Z,0.53
2023-04-11T03:20:52.620Z,0.62
2023-04-11T03:23:39.841Z,0.61
2023-04-11T03:26:30.034Z,0.69
2023-04-11T03:29:16.979Z,0.73
2023-04-11T03:32:04.218Z,0.59
2023-04-11T03:34:51.450Z,0.57
2023-04-11T03:37:38.585Z,0.63
2023-04-11T03:40:25.737Z,0.72
2023-04-11T03:43:12.898Z,0.61
2023-04-11T03:46:00.174Z,0.53
2023-04-11T03:48:47.506Z,0.50
2023-04-11T03:51:34.682Z,0.50
2023-04-11T03:54:21.787Z,0.43
2023-04-11T03:57:09.371Z,0.38
2023-04-11T03:59:56.613Z,0.39
2023-04-11T04:02:44.026Z,0.33
2023-04-11T04:05:31.229Z,0.37
2023-04-11T04:08:18.281Z,0.35
2023-04-11T04:11:05.792Z,0.46
2023-04-11T04:13:52.905Z,0.53
2023-04-11T04:16:40.211Z,0.55
2023-04-11T04:19:27.319Z,0.52
2023-04-11T04:22:17.940Z,0.54
2023-04-11T04:25:05.497Z,0.61
2023-04-11T04:27:54.310Z,0.59
2023-04-11T04:30:41.456Z,0.51
2023-04-11T04:33:28.601Z,0.79
2023-04-11T04:36:18.007Z,0.68
2023-04-11T04:39:07.901Z,0.81
2023-04-11T04:42:01.623Z,0.84
2023-04-11T04:44:49.362Z,0.83
2023-04-11T04:47:44.398Z,0.95
2023-04-11T04:50:31.656Z,0.84
2023-04-11T04:53:18.764Z,0.76
2023-04-11T04:56:09.464Z,0.90
2023-04-11T04:58:57.536Z,0.90
2023-04-11T05:01:44.762Z,0.90
2023-04-11T05:04:34.482Z,0.89
2023-04-11T05:07:21.806Z,0.93
2023-04-11T05:10:09.287Z,0.93
2023-04-11T05:12:56.635Z,0.93
2023-04-11T05:15:51.238Z,1.28
2023-04-11T05:18:38.453Z,1.23
2023-04-11T05:21:26.660Z,1.28
2023-04-11T05:24:13.810Z,1.38
2023-04-11T05:27:00.876Z,1.72
2023-04-11T05:29:47.962Z,1.61
2023-04-11T05:32:35.012Z,1.57
2023-04-11T05:35:22.500Z,1.68
2023-04-11T05:38:10.045Z,1.89
2023-04-11T05:40:57.113Z,1.99
2023-04-11T05:43:44.158Z,1.94
2023-04-11T05:46:35.839Z,2.02
2023-04-11T05:49:22.974Z,2.22
2023-04-11T05:52:10.128Z,2.21
2023-04-11T05:54:57.408Z,2.37
2023-04-11T05:57:44.475Z,2.41
2023-04-11T06:00:32.446Z,2.78
2023-04-11T06:03:19.741Z,2.86
2023-04-11T06:06:07.296Z,2.77
2023-04-11T06:08:54.662Z,2.75
2023-04-11T06:11:41.706Z,3.11
2023-04-11T06:14:29.915Z,3.19
2023-04-11T06:17:17.156Z,3.25
2023-04-11T06:20:06.424Z,3.30
2023-04-11T06:22:53.574Z,3.30
2023-04-11T06:25:40.809Z,3.42
2023-04-11T06:28:27.939Z,3.58
2023-04-11T06:31:15.010Z,3.54
2023-04-11T06:34:02.292Z,3.60
2023-04-11T06:36:50.109Z,3.70
2023-04-11T06:39:37.285Z,3.84
2023-04-11T06:42:24.367Z,3.96
2023-04-11T06:45:12.164Z,3.95
2023-04-11T06:47:59.325Z,4.19
2023-04-11T06:50:48.316Z,4.26
2023-04-11T06:53:35.392Z,4.46
2023-04-11T06:56:22.588Z,4.65
2023-04-11T06:59:09.677Z,4.82
2023-04-11T07:01:56.922Z,4.77
2023-04-11T07:04:44.195Z,4.98
2023-04-11T07:07:31.533Z,5.16
2023-04-11T07:10:18.609Z,5.37
2023-04-11T07:13:05.967Z,5.43
2023-04-11T07:15:53.119Z,5.34
2023-04-11T07:18:40.460Z,5.49
2023-04-11T07:21:28.615Z,5.29
2023-04-11T07:24:18.614Z,5.13
2023-04-11T07:27:06.971Z,5.23
2023-04-11T07:29:54.072Z,5.24
2023-04-11T07:32:41.411Z,5.29
2023-04-11T07:35:28.977Z,5.40
2023-04-11T07:38:29.672Z,5.38
2023-04-11T07:41:16.874Z,5.35
2023-04-11T07:44:06.816Z,5.25
2023-04-11T07:46:53.866Z,5.22
2023-04-11T07:49:40.973Z,5.23
2023-04-11T07:52:28.088Z,5.34
2023-04-11T07:55:15.198Z,5.35
2023-04-11T07:58:02.288Z,5.42
2023-04-11T08:00:50.803Z,5.43
2023-04-11T08:03:38.016Z,5.44
2023-04-11T08:06:26.731Z,5.46
2023-04-11T08:09:13.835Z,5.53
2023-04-11T08:12:01.806Z,5.55
2023-04-11T08:14:48.870Z,5.66
2023-04-11T08:17:38.708Z,5.67
2023-04-11T08:20:26.307Z,5.77
2023-04-11T08:23:13.605Z,5.79
2023-04-11T08:26:01.564Z,6.10
2023-04-11T08:28:48.732Z,6.14
2023-04-11T08:31:35.757Z,6.28
2023-04-11T08:34:22.972Z,6.25
2023-04-11T08:37:10.219Z,6.48
2023-04-11T08:39:57.731Z,6.48
2023-04-11T08:42:45.797Z,6.24
2023-04-11T08:45:32.911Z,6.27
2023-04-11T08:48:22.181Z,6.41
2023-04-11T08:51:09.249Z,6.26
2023-04-11T08:53:59.689Z,6.20
2023-04-11T08:56:47.761Z,6.26
2023-04-11T08:59:34.804Z,6.38
2023-04-11T09:02:22.331Z,6.50
2023-04-11T09:05:25.299Z,6.78
2023-04-11T09:08:14.320Z,7.15
2023-04-11T09:11:01.728Z,7.16
2023-04-11T09:14:05.809Z,7.19
2023-04-11T09:16:58.412Z,7.27
2023-04-11T09:19:48.290Z,7.48
2023-04-11T09:22:36.698Z,7.74
2023-04-11T09:25:24.195Z,7.94
2023-04-11T09:28:11.388Z,8.37
2023-04-11T09:30:58.524Z,8.48
2023-04-11T09:33:55.842Z,8.53
2023-04-11T09:36:44.301Z,8.18
2023-04-11T09:39:32.801Z,8.37
2023-04-11T09:42:25.897Z,8.32
2023-04-11T09:45:23.225Z,8.78
2023-04-11T09:48:10.791Z,8.82
2023-04-11T09:50:59.122Z,8.64
2023-04-11T09:53:46.810Z,8.72
2023-04-11T09:56:35.096Z,9.03
2023-04-11T09:59:23.076Z,9.10
2023-04-11T10:02:10.258Z,8.98
2023-04-11T10:05:00.372Z,8.86
2023-04-11T10:07:48.815Z,8.89
2023-04-11T10:10:36.628Z,8.89
2023-04-11T10:13:45.604Z,8.99
2023-04-11T10:16:34.463Z,8.81
2023-04-11T10:19:21.813Z,9.14
2023-04-11T10:22:09.326Z,8.94
2023-04-11T10:25:15.073Z,8.80
2023-04-11T10:28:04.084Z,8.85
2023-04-11T10:31:02.263Z,9.00
2023-04-11T10:34:12.864Z,9.00
2023-04-11T10:37:07.851Z,9.17
2023-04-11T10:39:54.927Z,9.15
2023-04-11T10:42:46.942Z,9.09
2023-04-11T10:45:39.851Z,8.95
2023-04-11T10:48:26.998Z,8.85
2023-04-11T10:51:24.973Z,8.80
2023-04-11T10:54:25.893Z,8.62
2023-04-11T10:57:13.346Z,8.66
2023-04-11T11:00:02.079Z,8.67
2023-04-11T11:02:50.168Z,8.77
2023-04-11T11:05:37.416Z,8.61
2023-04-11T11:08:30.745Z,8.59
2023-04-11T11:11:19.475Z,8.40
2023-04-11T11:14:06.639Z,8.48
2023-04-11T11:16:53.722Z,8.47
2023-04-11T11:19:45.278Z,8.37
2023-04-11T11:22:32.310Z,8.50
2023-04-11T11:25:19.481Z,8.50
2023-04-11T11:28:08.416Z,8.52
2023-04-11T11:30:57.519Z,8.47
2023-04-11T11:33:44.646Z,8.62
2023-04-11T11:36:34.510Z,8.60
2023-04-11T11:42:28.855Z,8.97
2023-04-11T11:45:17.773Z,9.10
2023-04-11T11:48:05.031Z,9.08
2023-04-11T11:50:58.585Z,9.25
2023-04-11T11:54:01.950Z,9.41
2023-04-11T11:56:55.227Z,9.51
2023-04-11T11:59:42.330Z,9.78
2023-04-11T12:02:29.520Z,10.41
2023-04-11T12:05:17.422Z,10.68
2023-04-11T12:08:07.496Z,10.72
2023-04-11T12:10:54.634Z,10.87
2023-04-11T12:13:41.860Z,10.38
2023-04-11T12:16:29.088Z,10.22
2023-04-11T12:19:16.394Z,9.92
2023-04-11T12:22:03.511Z,9.95
2023-04-11T12:25:11.301Z,9.76
2023-04-11T12:27:58.573Z,9.57
2023-04-11T12:30:45.713Z,9.67
2023-04-11T12:33:32.847Z,9.51
2023-04-11T12:36:20.057Z,9.54
2023-04-11T12:39:07.393Z,9.74
2023-04-11T12:41:54.410Z,10.24
2023-04-11T12:44:41.505Z,10.62
2023-04-11T12:47:28.544Z,11.05
2023-04-11T12:50:15.698Z,11.34
2023-04-11T12:53:02.764Z,11.35
2023-04-11T12:55:49.865Z,11.51
2023-04-11T12:58:36.973Z,12.17
2023-04-11T13:01:24.499Z,12.19
2023-04-11T13:04:11.834Z,12.48
2023-04-11T13:07:02.175Z,12.23
2023-04-11T13:09:49.749Z,11.85
2023-04-11T13:12:39.962Z,11.69
2023-04-11T13:15:27.270Z,11.28
2023-04-11T13:18:14.619Z,11.41
2023-04-11T13:21:01.694Z,11.35
2023-04-11T13:23:48.779Z,11.30
2023-04-11T13:26:35.996Z,11.44
2023-04-11T13:29:23.132Z,10.93
2023-04-11T13:32:10.168Z,11.01
2023-04-11T13:34:57.258Z,10.95
2023-04-11T13:37:44.568Z,10.93
2023-04-11T13:40:31.688Z,10.92
2023-04-11T13:43:18.712Z,10.91
2023-04-11T13:46:06.128Z,11.07
2023-04-11T13:48:53.327Z,11.28
2023-04-11T13:51:41.438Z,11.82
2023-04-11T13:54:28.561Z,11.94
2023-04-11T13:57:15.846Z,12.25
2023-04-11T14:00:11.943Z,12.64
2023-04-11T14:02:59.265Z,12.87
2023-04-11T14:05:46.370Z,13.05
2023-04-11T14:08:33.427Z,12.60
2023-04-11T14:11:21.199Z,12.19
2023-04-11T14:14:08.369Z,11.81
2023-04-11T14:16:55.680Z,12.08
2023-04-11T14:19:43.011Z,11.61
2023-04-11T14:22:30.939Z,11.64
2023-04-11T14:25:18.563Z,11.40
2023-04-11T14:28:05.796Z,11.32
2023-04-11T14:30:52.928Z,11.20
2023-04-11T14:33:40.143Z,10.68
2023-04-11T14:36:28.114Z,10.73
2023-04-11T14:39:15.562Z,10.84
2023-04-11T14:42:02.927Z,10.91
2023-04-11T14:44:50.542Z,10.93
2023-04-11T14:47:37.940Z,10.46
2023-04-11T14:50:27.024Z,10.33
2023-04-11T14:53:14.891Z,10.04
2023-04-11T14:56:05.776Z,9.80
2023-04-11T14:58:53.341Z,9.99
2023-04-11T15:01:40.527Z,9.94
2023-04-11T15:04:27.894Z,9.74
2023-04-11T15:07:14.982Z,9.61
2023-04-11T15:10:02.584Z,9.18
2023-04-11T15:12:50.251Z,9.46
2023-04-11T15:15:37.422Z,9.50
2023-04-11T15:18:28.031Z,9.40
2023-04-11T15:21:15.954Z,9.43
2023-04-11T15:24:06.617Z,9.72
2023-04-11T15:26:53.672Z,10.04
2023-04-11T15:29:40.795Z,10.10
2023-04-11T15:32:29.091Z,10.41
2023-04-11T15:35:16.267Z,10.70
2023-04-11T15:38:03.637Z,10.58
2023-04-11T15:40:52.539Z,10.49
2023-04-11T15:43:40.498Z,10.28
2023-04-11T15:46:27.854Z,10.09
2023-04-11T15:49:15.191Z,9.92
2023-04-11T15:52:02.242Z,9.93
2023-04-11T15:54:49.396Z,10.10
2023-04-11T15:57:36.453Z,10.17
2023-04-11T16:00:23.858Z,10.07
2023-04-11T16:03:11.471Z,9.89
2023-04-11T16:05:59.989Z,9.71
2023-04-11T16:08:47.039Z,9.59
2023-04-11T16:11:34.108Z,9.50
2023-04-11T16:14:21.754Z,9.44
2023-04-11T16:17:08.879Z,9.46
2023-04-11T16:19:56.233Z,9.27
2023-04-11T16:22:43.308Z,9.22
2023-04-11T16:25:31.042Z,9.17
2023-04-11T16:28:18.119Z,9.23
2023-04-11T16:31:05.336Z,9.07
2023-04-11T16:33:53.666Z,9.07
2023-04-11T16:36:40.960Z,8.91
2023-04-11T16:39:28.318Z,8.49
2023-04-11T16:42:16.136Z,8.53
2023-04-11T16:45:03.436Z,8.58
2023-04-11T16:47:50.725Z,8.34
2023-04-11T16:50:38.445Z,8.26
2023-04-11T16:53:25.790Z,8.34
2023-04-11T16:56:13.086Z,8.36
2023-04-11T16:59:00.173Z,8.18
2023-04-11T17:01:47.393Z,8.18
2023-04-11T17:04:34.879Z,8.04
2023-04-11T17:07:22.125Z,7.94
2023-04-11T17:10:10.258Z,7.87
2023-04-11T17:12:58.538Z,7.83
2023-04-11T17:15:46.496Z,7.62
2023-04-11T17:18:39.075Z,7.65
2023-04-11T17:21:26.576Z,7.54
2023-04-11T17:24:13.700Z,7.35
2023-04-11T17:27:00.847Z,7.00
2023-04-11T17:29:48.078Z,6.77
2023-04-11T17:32:38.246Z,6.61
2023-04-11T17:35:26.280Z,6.35
2023-04-11T17:38:13.426Z,6.30
2023-04-11T17:41:13.651Z,6.30
2023-04-11T17:44:01.371Z,6.09
2023-04-11T17:46:49.536Z,6.00
2023-04-11T17:49:36.839Z,6.12
2023-04-11T17:52:24.023Z,6.19
2023-04-11T17:55:13.230Z,6.15
2023-04-11T17:58:00.458Z,6.16
2023-04-11T18:00:56.222Z,6.12
2023-04-11T18:03:44.396Z,6.30
2023-04-11T18:06:34.373Z,6.30
2023-04-11T18:09:22.020Z,6.08
2023-04-11T18:12:09.149Z,6.24
2023-04-11T18:14:57.285Z,6.24
2023-04-11T18:17:47.675Z,6.29
2023-04-11T18:20:34.840Z,6.39
2023-04-11T18:23:22.337Z,6.28
2023-04-11T18:26:09.544Z,6.06
2023-04-11T18:28:56.802Z,6.05
2023-04-11T18:31:44.022Z,6.23
2023-04-11T18:34:31.417Z,6.16
2023-04-11T18:37:19.373Z,6.22
2023-04-11T18:40:14.603Z,6.08
2023-04-11T18:43:02.144Z,5.97
2023-04-11T18:45:50.645Z,5.89
2023-04-11T18:48:38.446Z,5.88
2023-04-11T18:51:25.809Z,5.80
2023-04-11T18:54:13.079Z,5.84
2023-04-11T18:57:04.150Z,5.92
2023-04-11T18:59:55.374Z,5.97
2023-04-11T19:02:55.317Z,5.58
2023-04-11T19:05:44.929Z,5.53
2023-04-11T19:08:33.147Z,5.70
2023-04-11T19:11:22.278Z,5.75
2023-04-11T19:14:14.531Z,5.59
2023-04-11T19:17:02.095Z,5.55
2023-04-11T19:19:49.271Z,5.52
2023-04-11T19:22:40.196Z,5.46
2023-04-11T19:25:28.027Z,5.59
2023-04-11T19:28:16.103Z,5.59
2023-04-11T19:31:06.912Z,5.50
2023-04-11T19:33:54.622Z,5.51
2023-04-11T19:36:43.014Z,5.58
2023-04-11T19:39:37.537Z,5.54
2023-04-11T19:42:25.863Z,5.60
2023-04-11T19:45:13.592Z,5.57
2023-04-11T19:48:04.480Z,5.50
2023-04-11T19:50:52.858Z,5.46
2023-04-11T19:53:41.601Z,5.27
2023-04-11T19:56:28.727Z,5.32
2023-04-11T19:59:19.252Z,5.33
2023-04-11T20:02:09.687Z,5.36
2023-04-11T20:04:57.474Z,5.31
2023-04-11T20:07:48.946Z,5.25
2023-04-11T20:10:38.054Z,5.22
2023-04-11T20:13:26.156Z,5.25
2023-04-11T20:16:13.516Z,5.39
2023-04-11T20:19:02.014Z,4.99
2023-04-11T20:21:54.194Z,5.11
2023-04-11T20:24:44.218Z,4.89
2023-04-11T20:27:33.621Z,4.81
2023-04-11T20:30:21.068Z,4.66
2023-04-11T20:33:08.187Z,4.65
2023-04-11T20:35:59.296Z,4.52
2023-04-11T20:38:47.657Z,4.62
2023-04-11T20:41:40.743Z,4.45
2023-04-11T20:44:28.076Z,4.55
2023-04-11T20:47:15.278Z,4.65
2023-04-11T20:50:05.259Z,4.56
2023-04-11T20:52:53.162Z,4.59
2023-04-11T20:55:41.455Z,4.64
2023-04-11T20:58:28.753Z,4.45
2023-04-11T21:01:16.255Z,4.42
2023-04-11T21:04:04.138Z,4.16
2023-04-11T21:06:51.783Z,4.07
2023-04-11T21:09:38.890Z,4.14
2023-04-11T21:12:26.245Z,4.17
2023-04-11T21:15:13.387Z,3.87
2023-04-11T21:18:00.593Z,4.14
2023-04-11T21:20:47.667Z,3.96
2023-04-11T21:23:35.076Z,4.11
2023-04-11T21:26:23.481Z,4.05
2023-04-11T21:29:12.008Z,4.03
2023-04-11T21:31:59.183Z,4.11
2023-04-11T21:34:46.296Z,4.34
2023-04-11T21:37:33.461Z,4.23
2023-04-11T21:40:20.564Z,4.27
2023-04-11T21:43:07.600Z,4.42
2023-04-11T21:45:54.653Z,4.36
2023-04-11T21:48:43.211Z,4.31
2023-04-11T21:51:30.934Z,4.19
2023-04-11T21:54:17.968Z,3.93
2023-04-11T21:57:05.074Z,3.88
2023-04-11T21:59:52.133Z,3.72
2023-04-11T22:02:40.189Z,3.68
2023-04-11T22:05:27.636Z,3.64
2023-04-11T22:08:19.917Z,3.57
2023-04-11T22:11:10.439Z,3.71
2023-04-11T22:13:58.788Z,3.52
2023-04-11T22:16:52.095Z,3.29
2023-04-11T22:19:42.322Z,3.30
2023-04-11T22:22:32.524Z,3.21
2023-04-11T22:25:22.501Z,3.10
2023-04-11T22:28:18.558Z,3.21
2023-04-11T22:31:06.104Z,3.33
2023-04-11T22:33:53.154Z,3.13
2023-04-11T22:36:40.250Z,3.01
2023-04-11T22:39:27.324Z,2.91
2023-04-11T22:42:14.385Z,2.85
2023-04-11T22:45:01.547Z,2.74
2023-04-11T22:47:54.151Z,2.73
2023-04-11T22:50:41.847Z,2.82
2023-04-11T22:53:29.510Z,2.82
2023-04-11T22:56:16.628Z,2.90
2023-04-11T22:59:03.697Z,2.79
2023-04-11T23:19:52.236Z,2.41
2023-04-11T23:22:42.278Z,2.39
2023-04-11T23:25:29.659Z,2.50
2023-04-11T23:28:16.778Z,2.39
2023-04-11T23:31:04.054Z,2.39
2023-04-11T23:33:51.225Z,2.33
2023-04-11T23:36:38.864Z,2.38
2023-04-11T23:39:26.541Z,2.32
2023-04-11T23:42:13.560Z,2.31
2023-04-11T23:45:00.670Z,2.47
2023-04-11T23:47:48.450Z,2.45
2023-04-11T23:50:35.514Z,2.25
2023-04-11T23:53:22.866Z,2.13
2023-04-11T23:56:10.072Z,2.15
2023-04-11T23:58:57.244Z,2.15
